Time;durP1;ratioP1;P1;durP2;ratioP2;P2;SDS_P1;SDS_P2;PMS_P1;PMS_P2;Temp;Humidity;BMP_temperature;BMP_pressure;BME280_temperature;BME280_humidity;BME280_pressure;Samples;Min_cycle;Max_cycle;Signal;HPM_P1;HPM_P2
2022/06/30 00:01:07;;;;;;;2.83;1.88;;;;;;;;;;5050648;28;20060;-67
2022/06/30 00:03:33;;;;;;;3.40;1.83;;;;;;;;;;5038632;28;20493;-68
2022/06/30 00:06:00;;;;;;;2.60;1.98;;;;;;;;;;5046268;28;20045;-67
2022/06/30 00:08:26;;;;;;;3.13;1.80;;;;;;;;;;5050284;28;20060;-67
2022/06/30 00:10:52;;;;;;;3.42;2.03;;;;;;;;;;5050793;28;20080;-68
2022/06/30 00:13:18;;;;;;;3.60;2.40;;;;;;;;;;5050216;28;20052;-68
2022/06/30 00:15:44;;;;;;;2.38;1.73;;;;;;;;;;5050409;28;20041;-68
2022/06/30 00:18:10;;;;;;;2.50;1.75;;;;;;;;;;5049902;28;20156;-68
2022/06/30 00:20:36;;;;;;;2.15;1.58;;;;;;;;;;5048882;28;20049;-68
2022/06/30 00:23:02;;;;;;;2.20;1.70;;;;;;;;;;5050581;28;20068;-68
2022/06/30 00:25:29;;;;;;;3.15;1.73;;;;;;;;;;5049690;28;20041;-68
2022/06/30 00:27:55;;;;;;;3.40;1.67;;;;;;;;;;5038307;28;20096;-68
2022/06/30 00:30:21;;;;;;;3.35;1.98;;;;;;;;;;5029567;28;20057;-68
2022/06/30 00:32:47;;;;;;;3.10;1.70;;;;;;;;;;5045690;28;20045;-68
2022/06/30 00:35:13;;;;;;;2.67;1.60;;;;;;;;;;5028429;28;20550;-68
2022/06/30 00:37:39;;;;;;;2.55;1.70;;;;;;;;;;5036226;28;20076;-68
2022/06/30 00:40:05;;;;;;;3.25;1.85;;;;;;;;;;5050358;28;20135;-68
2022/06/30 00:42:31;;;;;;;3.05;1.80;;;;;;;;;;5049624;28;20052;-68
2022/06/30 00:44:57;;;;;;;2.70;1.60;;;;;;;;;;5050116;28;20425;-68
2022/06/30 00:47:23;;;;;;;2.42;1.70;;;;;;;;;;5049290;28;20055;-68
2022/06/30 00:49:51;;;;;;;2.47;1.80;;;;;;;;;;5048595;28;20125;-68
2022/06/30 00:52:19;;;;;;;2.67;1.80;;;;;;;;;;5048669;28;20057;-68
2022/06/30 00:54:45;;;;;;;2.38;1.65;;;;;;;;;;5049849;28;20045;-68
2022/06/30 00:57:12;;;;;;;2.92;1.90;;;;;;;;;;5049370;28;20131;-67
2022/06/30 00:59:38;;;;;;;2.58;1.70;;;;;;;;;;5049922;28;20379;-69
2022/06/30 01:02:05;;;;;;;2.25;1.60;;;;;;;;;;5049086;28;20190;-68
2022/06/30 01:04:33;;;;;;;4.20;1.95;;;;;;;;;;5034976;28;20068;-69
2022/06/30 01:07:00;;;;;;;1.77;1.40;;;;;;;;;;5028131;28;20053;-69
2022/06/30 01:14:57;;;;;;;2.28;1.70;;;;;;;;;;5030251;28;20045;-68
2022/06/30 01:17:23;;;;;;;3.17;1.90;;;;;;;;;;5028862;28;20049;-68
2022/06/30 01:19:56;;;;;;;2.35;1.73;;;;;;;;;;5039635;28;20564;-67
2022/06/30 01:22:23;;;;;;;2.17;1.45;;;;;;;;;;5047098;28;20045;-68
2022/06/30 01:24:49;;;;;;;2.25;1.60;;;;;;;;;;5049372;28;20047;-68
2022/06/30 01:27:15;;;;;;;2.95;1.60;;;;;;;;;;5048848;28;20056;-68
2022/06/30 01:29:41;;;;;;;3.75;1.90;;;;;;;;;;5049552;28;20103;-69
2022/06/30 01:32:07;;;;;;;2.83;1.90;;;;;;;;;;5048216;28;20136;-67
2022/06/30 01:34:34;;;;;;;2.42;1.50;;;;;;;;;;5031122;28;20049;-68
2022/06/30 01:37:00;;;;;;;2.63;1.75;;;;;;;;;;5046254;28;20057;-68
2022/06/30 01:39:26;;;;;;;2.13;1.75;;;;;;;;;;5029016;28;20061;-68
2022/06/30 01:41:52;;;;;;;3.92;1.75;;;;;;;;;;5035921;28;20057;-68
2022/06/30 01:44:18;;;;;;;2.45;1.55;;;;;;;;;;5048763;28;20091;-68
2022/06/30 01:46:48;;;;;;;3.22;1.75;;;;;;;;;;5048766;28;20052;-68
2022/06/30 01:49:14;;;;;;;4.43;2.58;;;;;;;;;;5048929;28;20107;-67
2022/06/30 01:51:40;;;;;;;2.55;1.80;;;;;;;;;;5047419;28;20057;-68
2022/06/30 01:54:06;;;;;;;1.60;1.38;;;;;;;;;;5049233;28;20087;-68
2022/06/30 01:56:32;;;;;;;3.05;1.80;;;;;;;;;;5047263;28;20048;-68
2022/06/30 01:58:58;;;;;;;2.00;1.50;;;;;;;;;;5031292;28;20136;-68
2022/06/30 02:01:24;;;;;;;2.38;1.60;;;;;;;;;;5048047;28;20045;-68
2022/06/30 02:03:50;;;;;;;2.65;1.70;;;;;;;;;;5048061;28;20052;-69
2022/06/30 02:06:16;;;;;;;1.92;1.52;;;;;;;;;;5046735;28;20095;-68
2022/06/30 02:08:42;;;;;;;2.33;1.40;;;;;;;;;;5048835;28;20516;-69
2022/06/30 02:11:08;;;;;;;2.38;1.67;;;;;;;;;;5049083;28;20049;-69
2022/06/30 02:13:35;;;;;;;2.10;1.50;;;;;;;;;;5048381;28;20489;-69
2022/06/30 02:16:01;;;;;;;3.17;1.83;;;;;;;;;;5047335;28;20457;-68
2022/06/30 02:18:27;;;;;;;3.53;1.88;;;;;;;;;;5048321;28;20137;-69
2022/06/30 02:20:53;;;;;;;2.38;1.60;;;;;;;;;;5047084;28;20045;-69
2022/06/30 02:23:19;;;;;;;1.92;1.65;;;;;;;;;;5046138;28;20052;-69
2022/06/30 02:25:45;;;;;;;2.67;1.85;;;;;;;;;;5037465;28;20132;-69
2022/06/30 02:28:11;;;;;;;2.90;1.83;;;;;;;;;;5028933;28;20086;-69
2022/06/30 02:30:37;;;;;;;3.22;1.95;;;;;;;;;;5028121;28;20608;-69
2022/06/30 02:33:03;;;;;;;3.38;1.48;;;;;;;;;;5030360;28;20049;-69
2022/06/30 02:35:30;;;;;;;2.08;1.70;;;;;;;;;;5030010;28;20053;-69
2022/06/30 02:37:57;;;;;;;3.22;1.70;;;;;;;;;;5032595;28;20518;-69
2022/06/30 02:40:24;;;;;;;2.35;1.80;;;;;;;;;;5050808;28;20072;-69
2022/06/30 02:42:50;;;;;;;2.15;1.73;;;;;;;;;;5052552;28;20501;-69
2022/06/30 02:45:16;;;;;;;2.95;1.70;;;;;;;;;;5051785;28;20791;-68
2022/06/30 02:47:43;;;;;;;2.55;1.95;;;;;;;;;;5051765;28;20047;-69
2022/06/30 02:50:10;;;;;;;2.20;1.73;;;;;;;;;;5051235;28;20131;-69
2022/06/30 02:52:37;;;;;;;2.60;1.63;;;;;;;;;;5038100;28;20052;-69
2022/06/30 02:55:04;;;;;;;3.13;1.88;;;;;;;;;;5032285;28;20056;-69
2022/06/30 02:57:30;;;;;;;3.05;1.60;;;;;;;;;;5031756;28;20038;-69
2022/06/30 02:59:56;;;;;;;2.05;1.58;;;;;;;;;;5014570;28;20053;-69
2022/06/30 03:02:22;;;;;;;1.92;1.63;;;;;;;;;;5031358;28;20049;-69
2022/06/30 03:04:48;;;;;;;2.03;1.55;;;;;;;;;;5037999;28;20041;-68
2022/06/30 03:07:15;;;;;;;1.73;1.45;;;;;;;;;;5034203;28;20053;-69
2022/06/30 03:09:42;;;;;;;2.28;1.60;;;;;;;;;;5031479;28;20143;-69
2022/06/30 03:12:08;;;;;;;2.60;1.60;;;;;;;;;;5032453;28;20049;-70
2022/06/30 03:14:34;;;;;;;1.67;1.30;;;;;;;;;;5050239;28;20053;-69
2022/06/30 03:17:00;;;;;;;2.25;1.50;;;;;;;;;;5051421;28;20101;-69
2022/06/30 03:19:26;;;;;;;2.28;1.52;;;;;;;;;;5051206;28;20132;-68
2022/06/30 03:21:54;;;;;;;2.40;1.70;;;;;;;;;;5049407;28;20177;-69
2022/06/30 03:24:20;;;;;;;2.83;1.70;;;;;;;;;;5051584;28;20115;-68
2022/06/30 03:26:47;;;;;;;2.42;1.70;;;;;;;;;;5051331;28;20053;-69
2022/06/30 03:29:13;;;;;;;2.00;1.40;;;;;;;;;;5051666;28;20053;-69
2022/06/30 03:31:39;;;;;;;2.05;1.50;;;;;;;;;;5049759;28;20049;-68
2022/06/30 03:34:05;;;;;;;4.95;2.38;;;;;;;;;;5031242;28;20149;-69
2022/06/30 03:36:31;;;;;;;2.25;1.73;;;;;;;;;;5029025;28;20058;-69
2022/06/30 03:38:57;;;;;;;1.92;1.48;;;;;;;;;;5031539;28;20461;-69
2022/06/30 03:41:23;;;;;;;2.28;1.45;;;;;;;;;;5030260;28;20491;-67
2022/06/30 03:43:49;;;;;;;2.53;1.60;;;;;;;;;;5029639;28;20390;-69
2022/06/30 03:46:15;;;;;;;1.77;1.60;;;;;;;;;;5031209;28;20053;-69
2022/06/30 03:48:41;;;;;;;2.45;1.60;;;;;;;;;;5030672;28;20724;-68
2022/06/30 03:51:08;;;;;;;3.10;1.60;;;;;;;;;;5029697;28;20084;-69
2022/06/30 03:53:35;;;;;;;1.77;1.60;;;;;;;;;;5030704;28;20111;-69
2022/06/30 03:56:01;;;;;;;2.28;1.67;;;;;;;;;;5046511;28;20144;-69
2022/06/30 03:58:27;;;;;;;3.22;2.10;;;;;;;;;;5037244;28;20560;-69
2022/06/30 04:00:53;;;;;;;2.03;1.48;;;;;;;;;;5030718;28;20063;-69
2022/06/30 04:03:19;;;;;;;1.90;1.60;;;;;;;;;;5030940;28;20076;-69
2022/06/30 04:05:45;;;;;;;2.60;1.90;;;;;;;;;;5028522;28;20047;-69
2022/06/30 04:08:11;;;;;;;6.22;2.00;;;;;;;;;;5030755;28;20653;-68
2022/06/30 04:10:37;;;;;;;2.25;1.70;;;;;;;;;;5038661;28;20390;-69
2022/06/30 04:13:03;;;;;;;2.40;1.58;;;;;;;;;;5030868;28;20049;-69
2022/06/30 04:15:29;;;;;;;2.03;1.48;;;;;;;;;;5029989;28;20091;-69
2022/06/30 04:17:55;;;;;;;1.98;1.65;;;;;;;;;;5030724;28;20048;-69
2022/06/30 04:20:21;;;;;;;2.25;1.40;;;;;;;;;;5029069;28;20553;-68
2022/06/30 04:22:48;;;;;;;2.13;1.75;;;;;;;;;;5030027;28;20075;-69
2022/06/30 04:25:15;;;;;;;2.13;1.52;;;;;;;;;;5029383;28;20093;-69
2022/06/30 04:27:45;;;;;;;2.35;1.55;;;;;;;;;;5048263;28;20056;-68
2022/06/30 04:30:12;;;;;;;2.15;1.77;;;;;;;;;;5042269;28;20049;-68
2022/06/30 04:32:38;;;;;;;2.60;1.77;;;;;;;;;;5028656;28;20445;-68
2022/06/30 04:35:06;;;;;;;2.05;1.50;;;;;;;;;;5029249;28;20085;-68
2022/06/30 04:37:32;;;;;;;2.45;1.63;;;;;;;;;;5029283;28;20132;-69
2022/06/30 04:42:43;;;;;;;1.83;1.50;;;;;;;;;;5049714;28;20498;-69
2022/06/30 04:45:09;;;;;;;2.67;1.60;;;;;;;;;;5049536;28;20567;-68
2022/06/30 04:47:36;;;;;;;3.05;1.60;;;;;;;;;;5031457;28;20663;-68
2022/06/30 04:50:03;;;;;;;2.83;1.70;;;;;;;;;;5049163;28;20045;-68
2022/06/30 04:52:29;;;;;;;3.22;1.85;;;;;;;;;;5041274;28;20053;-69
2022/06/30 04:54:55;;;;;;;2.78;1.70;;;;;;;;;;5029409;28;20111;-68
2022/06/30 04:57:21;;;;;;;2.78;1.77;;;;;;;;;;5029996;28;20835;-68
2022/06/30 04:59:47;;;;;;;1.90;1.58;;;;;;;;;;5029361;28;20137;-68
2022/06/30 05:02:13;;;;;;;3.17;1.73;;;;;;;;;;5051324;28;20051;-69
2022/06/30 05:04:40;;;;;;;2.42;1.65;;;;;;;;;;5043919;28;20048;-68
2022/06/30 05:07:06;;;;;;;2.33;1.42;;;;;;;;;;5048836;28;20048;-69
2022/06/30 05:09:32;;;;;;;2.35;1.70;;;;;;;;;;5049212;28;20448;-68
2022/06/30 05:11:58;;;;;;;3.60;1.80;;;;;;;;;;5064668;28;20418;-69
2022/06/30 05:14:24;;;;;;;2.28;1.70;;;;;;;;;;5049763;28;20103;-69
2022/06/30 05:16:50;;;;;;;1.65;1.55;;;;;;;;;;5048628;28;20053;-69
2022/06/30 05:19:16;;;;;;;3.17;2.15;;;;;;;;;;5048648;28;20491;-69
2022/06/30 05:21:42;;;;;;;1.65;1.55;;;;;;;;;;5047401;28;20135;-68
2022/06/30 05:26:53;;;;;;;2.60;1.70;;;;;;;;;;5033034;28;20076;-68
2022/06/30 05:29:19;;;;;;;2.72;1.60;;;;;;;;;;5049510;28;20053;-69
2022/06/30 05:31:45;;;;;;;2.00;1.50;;;;;;;;;;5030585;28;20048;-68
2022/06/30 05:34:11;;;;;;;2.97;1.85;;;;;;;;;;5048921;28;20107;-68
2022/06/30 05:36:37;;;;;;;2.58;1.70;;;;;;;;;;5046932;28;20128;-68
2022/06/30 05:39:03;;;;;;;3.13;1.70;;;;;;;;;;5049223;28;20045;-68
2022/06/30 05:41:29;;;;;;;2.55;1.75;;;;;;;;;;5037078;28;20686;-67
2022/06/30 05:43:55;;;;;;;2.05;1.70;;;;;;;;;;5029177;28;20042;-68
2022/06/30 05:46:21;;;;;;;2.88;1.50;;;;;;;;;;5029083;28;20049;-68
2022/06/30 05:48:47;;;;;;;2.17;1.70;;;;;;;;;;5028626;28;20486;-68
2022/06/30 05:51:14;;;;;;;2.55;1.50;;;;;;;;;;5038143;28;20467;-68
2022/06/30 05:53:40;;;;;;;1.98;1.50;;;;;;;;;;5034631;28;20140;-68
2022/06/30 05:56:06;;;;;;;1.85;1.25;;;;;;;;;;5029240;28;20525;-68
2022/06/30 05:58:32;;;;;;;1.70;1.35;;;;;;;;;;5028646;28;20053;-67
2022/06/30 06:00:59;;;;;;;1.88;1.60;;;;;;;;;;5018148;28;20414;-68
2022/06/30 06:03:25;;;;;;;1.40;1.30;;;;;;;;;;5049045;28;20049;-68
2022/06/30 06:05:51;;;;;;;2.30;1.60;;;;;;;;;;5046731;28;20045;-68
2022/06/30 06:08:17;;;;;;;1.85;1.50;;;;;;;;;;5042383;28;20072;-69
2022/06/30 06:10:43;;;;;;;2.45;1.20;;;;;;;;;;5038559;28;20053;-68
2022/06/30 06:13:11;;;;;;;2.42;1.33;;;;;;;;;;5052291;28;20056;-68
2022/06/30 06:15:38;;;;;;;1.85;1.50;;;;;;;;;;5052167;28;20493;-68
2022/06/30 06:18:04;;;;;;;1.85;1.35;;;;;;;;;;5052964;28;20486;-68
2022/06/30 06:20:30;;;;;;;2.72;1.60;;;;;;;;;;5050651;28;20127;-68
2022/06/30 06:22:56;;;;;;;2.33;1.55;;;;;;;;;;5052174;28;20045;-68
2022/06/30 06:25:22;;;;;;;1.88;1.50;;;;;;;;;;5052634;28;20041;-68
2022/06/30 06:30:33;;;;;;;2.15;1.60;;;;;;;;;;5052144;28;20049;-66
2022/06/30 06:33:00;;;;;;;1.70;1.35;;;;;;;;;;5048959;28;20052;-68
2022/06/30 06:35:26;;;;;;;1.95;1.42;;;;;;;;;;5030542;28;20093;-67
2022/06/30 06:37:52;;;;;;;1.98;1.45;;;;;;;;;;5032324;28;20914;-66
2022/06/30 06:40:18;;;;;;;2.00;1.38;;;;;;;;;;5047950;28;20103;-68
2022/06/30 06:42:44;;;;;;;2.03;1.60;;;;;;;;;;5032284;28;20107;-67
2022/06/30 06:45:11;;;;;;;2.53;1.30;;;;;;;;;;5035159;28;20057;-68
2022/06/30 06:47:37;;;;;;;2.25;1.42;;;;;;;;;;5038398;28;20052;-66
2022/06/30 06:50:04;;;;;;;1.88;1.52;;;;;;;;;;5051618;28;20052;-67
2022/06/30 06:52:30;;;;;;;1.63;1.27;;;;;;;;;;5050883;28;20079;-67
2022/06/30 06:54:56;;;;;;;2.58;1.55;;;;;;;;;;5048410;28;20041;-67
2022/06/30 06:57:22;;;;;;;2.40;1.52;;;;;;;;;;5039280;28;20041;-68
2022/06/30 06:59:48;;;;;;;1.73;1.42;;;;;;;;;;5048570;28;20444;-66
2022/06/30 07:02:14;;;;;;;1.60;1.50;;;;;;;;;;5049750;28;20401;-66
2022/06/30 07:04:40;;;;;;;1.55;1.33;;;;;;;;;;5041908;28;20546;-66
2022/06/30 07:07:06;;;;;;;1.83;1.65;;;;;;;;;;5016504;28;20045;-67
2022/06/30 07:09:32;;;;;;;2.05;1.45;;;;;;;;;;5042892;28;20129;-66
2022/06/30 07:11:58;;;;;;;6.45;2.15;;;;;;;;;;5034830;28;20053;-66
2022/06/30 07:14:24;;;;;;;2.08;1.50;;;;;;;;;;5031419;28;20037;-66
2022/06/30 07:16:50;;;;;;;3.10;1.60;;;;;;;;;;5029610;28;20382;-66
2022/06/30 07:19:16;;;;;;;2.45;1.75;;;;;;;;;;5032643;28;20048;-66
2022/06/30 07:21:42;;;;;;;2.80;1.67;;;;;;;;;;5028417;28;20132;-66
2022/06/30 07:24:09;;;;;;;3.35;1.77;;;;;;;;;;5029630;28;20052;-66
2022/06/30 07:26:35;;;;;;;2.55;1.95;;;;;;;;;;5031876;28;20061;-66
2022/06/30 07:29:01;;;;;;;3.03;1.50;;;;;;;;;;5013516;28;20136;-66
2022/06/30 07:31:27;;;;;;;5.03;1.60;;;;;;;;;;5017616;28;20061;-66
2022/06/30 07:33:53;;;;;;;2.67;1.80;;;;;;;;;;5031034;28;20045;-66
2022/06/30 07:36:19;;;;;;;2.22;1.55;;;;;;;;;;5028598;28;20168;-66
2022/06/30 07:38:47;;;;;;;2.00;1.63;;;;;;;;;;5037460;28;20072;-66
2022/06/30 07:41:14;;;;;;;2.00;1.40;;;;;;;;;;5037546;28;20045;-66
2022/06/30 07:43:40;;;;;;;3.03;1.77;;;;;;;;;;5041159;28;20063;-66
2022/06/30 07:46:07;;;;;;;3.70;1.48;;;;;;;;;;5042527;28;20467;-66
2022/06/30 07:48:34;;;;;;;1.67;1.40;;;;;;;;;;5050190;28;20036;-67
2022/06/30 07:51:00;;;;;;;2.83;1.63;;;;;;;;;;5048900;28;20103;-67
2022/06/30 07:53:26;;;;;;;1.85;1.60;;;;;;;;;;5050775;28;20044;-69
2022/06/30 07:55:52;;;;;;;3.95;1.80;;;;;;;;;;5039603;28;20042;-67
2022/06/30 07:58:18;;;;;;;201.10;22.10;;;;;;;;;;5048402;28;20045;-66
2022/06/30 08:00:44;;;;;;;8.18;2.53;;;;;;;;;;5050634;28;20481;-66
2022/06/30 08:03:10;;;;;;;8.45;2.03;;;23.70;82.70;;;;;;5045241;28;20068;-65
2022/06/30 08:05:36;;;;;;;5.80;2.30;;;;;;;;;;5044002;28;20737;-77
2022/06/30 08:08:02;;;;;;;14.82;3.00;;;;;;;;;;5048695;28;20051;-72
2022/06/30 08:10:28;;;;;;;4.47;1.98;;;;;;;;;;5033529;28;20057;-67
2022/06/30 08:12:55;;;;;;;10.60;2.40;;;;;;;;;;5046635;28;20048;-65
2022/06/30 08:15:21;;;;;;;7.85;2.33;;;;;;;;;;5040407;28;20422;-68
2022/06/30 08:17:47;;;;;;;3.83;2.13;;;;;;;;;;5044658;28;20049;-65
2022/06/30 08:20:13;;;;;;;6.53;1.95;;;;;;;;;;5049903;28;20060;-64
2022/06/30 08:22:39;;;;;;;3.22;1.92;;;;;;;;;;5050390;28;20087;-65
2022/06/30 08:25:05;;;;;;;4.38;2.20;;;;;;;;;;5049067;28;20199;-66
2022/06/30 08:27:31;;;;;;;8.48;2.10;;;;;;;;;;5045419;28;20051;-63
2022/06/30 08:29:57;;;;;;;11.93;2.10;;;;;;;;;;5041798;28;20118;-64
2022/06/30 08:32:23;;;;;;;9.88;2.25;;;;;;;;;;5043269;28;20045;-66
2022/06/30 08:34:50;;;;;;;3.53;2.13;;;;;;;;;;5046676;28;20505;-62
2022/06/30 08:37:16;;;;;;;3.22;2.03;;;;;;;;;;5040513;28;20044;-66
2022/06/30 08:42:27;;;;;;;2.92;1.77;;;;;;;;;;5050228;28;20041;-66
2022/06/30 08:47:39;;;;;;;5.80;2.10;;;;;;;;;;5048798;28;20070;-66
2022/06/30 08:50:06;;;;;;;3.92;1.90;;;;;;;;;;5048504;28;20052;-66
2022/06/30 08:52:33;;;;;;;5.25;2.10;;;;;;;;;;5048966;28;20490;-67
2022/06/30 08:55:00;;;;;;;4.05;2.00;;;;;;;;;;5046934;28;20045;-67
2022/06/30 08:57:27;;;;;;;5.07;2.08;;;;;;;;;;5040445;28;20152;-67
2022/06/30 08:59:54;;;;;;;5.13;2.17;;;;;;;;;;5043620;28;20064;-67
2022/06/30 09:02:20;;;;;;;5.07;2.20;;;;;;;;;;5048354;28;20049;-66
2022/06/30 09:04:46;;;;;;;4.20;2.10;;;;;;;;;;5044271;28;20052;-62
2022/06/30 09:07:12;;;;;;;4.10;1.98;;;;;;;;;;5045180;28;20040;-66
2022/06/30 09:09:39;;;;;;;2.75;1.90;;;;;;;;;;5037691;28;20044;-67
2022/06/30 09:12:13;;;;;;;4.35;2.15;;;;;;;;;;5070192;28;20047;-66
2022/06/30 09:14:40;;;;;;;4.00;2.00;;;;;;;;;;5055270;28;20472;-68
2022/06/30 09:17:16;;;;;;;3.42;1.98;;;;;;;;;;5047771;28;20056;-66
2022/06/30 09:19:52;;;;;;;6.35;2.38;;;;;;;;;;5040623;28;20048;-66
2022/06/30 09:22:18;;;;;;;3.38;1.80;;;;;;;;;;5041088;28;20063;-65
2022/06/30 09:24:44;;;;;;;8.27;2.40;;;;;;;;;;5064129;28;20079;-66
2022/06/30 09:27:19;;;;;;;3.15;1.98;;;;;;;;;;5047456;28;20071;-66
2022/06/30 09:29:53;;;;;;;5.38;2.40;;;;;;;;;;5051729;28;20056;-66
2022/06/30 09:32:19;;;;;;;4.85;2.83;;;;;;;;;;5060284;28;20040;-66
2022/06/30 09:34:47;;;;;;;4.45;2.40;;;;;;;;;;5065829;28;20244;-64
2022/06/30 09:37:17;;;;;;;6.63;2.75;;;;;;;;;;5066847;28;20094;-66
2022/06/30 09:39:43;;;;;;;8.00;2.67;;;;;;;;;;5058526;28;20048;-65
2022/06/30 09:42:09;;;;;;;7.13;2.83;;;;;;;;;;5069410;28;20055;-62
2022/06/30 09:44:36;;;;;;;6.75;2.65;;;;;;;;;;5060464;28;20048;-65
2022/06/30 09:47:04;;;;;;;6.07;2.72;;;;;;;;;;5042207;28;20535;-64
2022/06/30 09:49:30;;;;;;;5.15;2.70;;;;;;;;;;5039403;28;20056;-64
2022/06/30 09:51:56;;;;;;;5.07;3.03;;;;;;;;;;5045091;28;20048;-64
2022/06/30 09:54:22;;;;;;;8.13;2.85;;;;;;;;;;5047712;28;20120;-65
2022/06/30 09:57:02;;;;;;;4.75;2.53;;;;;;;;;;5030922;28;20041;-64
2022/06/30 09:59:28;;;;;;;5.65;2.70;;;;;;;;;;5048463;28;20417;-64
2022/06/30 10:01:55;;;;;;;4.93;2.90;;;;;;;;;;5047777;28;20037;-64
2022/06/30 10:04:21;;;;;;;6.55;3.50;;;;;;;;;;5041580;28;20056;-64
2022/06/30 10:06:47;;;;;;;8.27;3.60;;;;;;;;;;5033669;28;20049;-64
2022/06/30 10:09:17;;;;;;;8.60;3.47;;;;;;;;;;5049812;28;20124;-64
2022/06/30 10:11:44;;;;;;;8.88;3.38;;;;;;;;;;5045300;28;20393;-64
2022/06/30 10:14:11;;;;;;;5.70;3.08;;;;;;;;;;5046226;28;20049;-64
2022/06/30 10:16:40;;;;;;;7.45;3.33;;;;;;;;;;5046178;28;20051;-64
2022/06/30 10:19:09;;;;;;;7.20;3.47;;;;;;;;;;5048830;28;20040;-64
2022/06/30 10:21:36;;;;;;;4.10;2.55;;;;;;;;;;5047043;28;20080;-64
2022/06/30 10:24:03;;;;;;;7.75;3.55;;;;;;;;;;5047665;28;20088;-66
2022/06/30 10:29:14;;;;;;;7.85;3.63;;;;;;;;;;5033260;28;20057;-65
2022/06/30 10:31:43;;;;;;;5.25;3.10;;;;;;;;;;5037124;28;20046;-66
2022/06/30 10:34:13;;;;;;;5.03;2.80;;;;;;;;;;5032361;28;20058;-66
2022/06/30 10:36:44;;;;;;;8.13;3.00;;;;;;;;;;5028627;28;20054;-66
2022/06/30 10:39:17;;;;;;;6.65;3.22;;;;;;;;;;5030612;28;20129;-65
2022/06/30 10:41:47;;;;;;;4.93;2.75;;;;;;;;;;5030326;28;20049;-65
2022/06/30 10:44:20;;;;;;;6.35;3.35;;;;;;;;;;5012066;28;20051;-66
2022/06/30 10:46:46;;;;;;;4.20;2.72;;;;;;;;;;5041793;28;20056;-65
2022/06/30 10:49:13;;;;;;;6.13;2.95;;;;;;;;;;5049667;28;20041;-64
2022/06/30 10:51:39;;;;;;;5.63;2.92;;;;;;;;;;5047865;28;20053;-66
2022/06/30 10:54:06;;;;;;;6.43;3.03;;;;;;;;;;5029947;28;20049;-65
2022/06/30 10:56:51;;;;;;;8.80;3.03;;;;;;;;;;5050266;28;20135;-65
2022/06/30 10:59:26;;;;;;;4.88;2.78;;;;;;;;;;5051235;28;20045;-66
2022/06/30 11:02:08;;;;;;;5.50;2.97;;;;;;;;;;5051691;28;20052;-65
2022/06/30 11:04:34;;;;;;;4.25;2.80;;;;;;;;;;5050540;28;20045;-68
2022/06/30 11:07:06;;;;;;;4.93;2.53;;;;;;;;;;5033101;28;20045;-66
2022/06/30 11:09:47;;;;;;;7.50;2.88;;;;;;;;;;5053246;28;20145;-65
2022/06/30 11:12:37;;;;;;;4.97;2.47;;;;;;;;;;5050660;28;20052;-65
2022/06/30 11:15:03;;;;;;;4.38;2.40;;;;;;;;;;5042153;28;20386;-64
2022/06/30 11:17:30;;;;;;;8.10;3.42;;;;;;;;;;5042330;28;20045;-64
2022/06/30 11:20:13;;;;;;;6.95;3.70;;;;;;;;;;5044579;28;20464;-61
2022/06/30 11:22:39;;;;;;;8.82;3.58;;;;;;;;;;5032401;28;20045;-64
2022/06/30 11:25:07;;;;;;;11.20;3.63;;;;;;;;;;5032667;28;20053;-64
2022/06/30 11:27:34;;;;;;;7.18;2.95;;;;;;;;;;5042161;28;20044;-63
2022/06/30 11:30:02;;;;;;;7.53;3.25;;;;;;;;;;5052572;28;20053;-65
2022/06/30 11:32:28;;;;;;;7.10;2.88;;;;;;;;;;5052826;28;20131;-65
2022/06/30 11:34:56;;;;;;;7.78;3.33;;;;;;;;;;5051778;28;20064;-64
2022/06/30 11:37:26;;;;;;;9.15;3.92;;;;;;;;;;5051657;28;20056;-65
2022/06/30 11:40:18;;;;;;;6.78;3.55;;;;;;;;;;5038792;28;20049;-64
2022/06/30 11:42:44;;;;;;;6.78;3.40;;;;;;;;;;5030975;28;20049;-64
2022/06/30 11:45:30;;;;;;;7.20;3.90;;;;;;;;;;5032146;28;20045;-64
2022/06/30 11:47:57;;;;;;;7.90;3.95;;;;;;;;;;5032717;28;20100;-65
2022/06/30 11:50:26;;;;;;;6.72;3.65;;;;;;;;;;5031454;28;20045;-65
2022/06/30 11:52:52;;;;;;;6.53;3.53;;;;;;;;;;5020498;28;20102;-64
2022/06/30 11:55:18;;;;;;;5.47;3.13;;;;;;;;;;5034392;28;20048;-64
2022/06/30 11:57:46;;;;;;;6.68;3.58;;;;;;;;;;5052518;28;20045;-64
2022/06/30 12:00:13;;;;;;;6.82;3.58;;;;;;;;;;5051735;28;20052;-64
2022/06/30 12:02:40;;;;;;;7.15;3.13;;;;;;;;;;5052285;28;20482;-64
2022/06/30 12:05:09;;;;;;;7.43;3.20;;;;;;;;;;5049500;28;20493;-65
2022/06/30 12:07:35;;;;;;;6.35;3.50;;;;;;;;;;5051523;28;20052;-64
2022/06/30 12:10:02;;;;;;;5.75;3.33;;;;;;;;;;5052084;28;20053;-60
2022/06/30 12:12:28;;;;;;;7.72;3.28;;;;;;;;;;5052267;28;20135;-65
2022/06/30 12:14:55;;;;;;;6.20;3.15;;;;;;;;;;5050618;28;20041;-64
2022/06/30 12:17:22;;;;;;;5.80;3.00;;;;;;;;;;5049421;28;20665;-64
2022/06/30 12:19:48;;;;;;;6.07;3.28;;;;;;;;;;5051174;28;20498;-62
2022/06/30 12:22:14;;;;;;;5.18;2.75;;;;;;;;;;5050415;28;20098;-65
2022/06/30 12:24:42;;;;;;;6.63;3.45;;;;;;;;;;5052029;28;20087;-65
2022/06/30 12:27:09;;;;;;;5.10;2.72;;;;;;;;;;5051384;28;20091;-65
2022/06/30 12:29:35;;;;;;;8.98;3.97;;;;;;;;;;5051618;28;20048;-64
2022/06/30 12:32:02;;;;;;;5.18;3.17;;;;;;;;;;5050909;28;20053;-62
2022/06/30 12:34:29;;;;;;;6.97;3.13;;;;;;;;;;5051572;28;20060;-64
2022/06/30 12:37:02;;;;;;;5.65;2.70;;;;;;;;;;5049631;28;20076;-65
2022/06/30 12:39:28;;;;;;;5.28;3.10;;;;;;;;;;5051510;28;20048;-64
2022/06/30 12:42:01;;;;;;;7.07;3.40;;;;;;;;;;5036725;28;20053;-64
2022/06/30 12:44:37;;;;;;;5.28;3.25;;;;;;;;;;5042074;28;20072;-64
2022/06/30 12:47:07;;;;;;;6.50;3.08;;;;;;;;;;5050600;28;20084;-61
2022/06/30 12:49:33;;;;;;;6.13;2.75;;;;;;;;;;5044924;28;20061;-65
2022/06/30 12:51:59;;;;;;;6.05;3.08;;;;;;;;;;5029921;28;20049;-63
2022/06/30 12:54:26;;;;;;;5.38;2.85;;;;;;;;;;5030186;28;20063;-65
2022/06/30 12:57:01;;;;;;;5.63;3.22;;;;;;;;;;5031348;28;20046;-65
2022/06/30 12:59:27;;;;;;;5.35;2.95;;;;;;;;;;5031112;28;20056;-65
2022/06/30 13:01:55;;;;;;;4.90;2.70;;;;;;;;;;5030929;28;20045;-64
2022/06/30 13:04:23;;;;;;;4.72;2.90;;;;;;;;;;5032608;28;20060;-64
2022/06/30 13:06:50;;;;;;;5.40;2.97;;;;;;;;;;5018592;28;20363;-64
2022/06/30 13:09:19;;;;;;;8.23;3.55;;;;;;;;;;5013470;28;20053;-64
2022/06/30 13:11:50;;;;;;;3.85;2.50;;;;;;;;;;5031245;28;20059;-64
2022/06/30 13:14:16;;;;;;;6.22;2.88;;;;;;;;;;5030793;28;20053;-65
2022/06/30 13:16:43;;;;;;;5.60;2.80;;;;;;;;;;5030113;28;20053;-65
2022/06/30 13:19:09;;;;;;;4.93;2.88;;;;;;;;;;5030790;28;20049;-65
2022/06/30 13:21:36;;;;;;;5.70;3.08;;;;;;;;;;5035659;28;20402;-65
2022/06/30 13:24:02;;;;;;;5.35;2.72;;;;;;;;;;5030931;28;20053;-64
2022/06/30 13:26:29;;;;;;;11.35;2.88;;;;;;;;;;5033228;28;20056;-63
2022/06/30 13:28:55;;;;;;;5.80;3.13;;;;;;;;;;5041766;28;20037;-65
2022/06/30 13:31:22;;;;;;;5.43;2.95;;;;;;;;;;5048987;28;20107;-65
2022/06/30 13:33:50;;;;;;;6.68;3.00;;;;;;;;;;5048985;28;20081;-65
2022/06/30 13:36:17;;;;;;;7.07;3.35;;;;;;;;;;5045570;28;20051;-64
2022/06/30 13:38:44;;;;;;;6.22;3.25;;;;;;;;;;5049190;28;20045;-65
2022/06/30 13:41:11;;;;;;;5.63;3.40;;;;;;;;;;5048432;28;20047;-64
2022/06/30 13:43:37;;;;;;;5.43;3.13;;;;;;;;;;5049487;28;20045;-65
2022/06/30 13:46:03;;;;;;;6.95;3.28;;;;;;;;;;5048696;28;20045;-65
2022/06/30 13:48:30;;;;;;;8.80;3.35;;;;;;;;;;5047417;28;20053;-65
2022/06/30 13:50:56;;;;;;;8.38;3.40;;;;;;;;;;5047444;28;20045;-64
2022/06/30 13:53:23;;;;;;;8.60;3.47;;;;;;;;;;5048523;28;20061;-65
2022/06/30 13:55:49;;;;;;;7.30;3.53;;;;;;;;;;5048860;28;20033;-65
2022/06/30 13:58:17;;;;;;;6.70;3.38;;;;;;;;;;5035387;28;20037;-65
2022/06/30 14:00:43;;;;;;;6.97;3.75;;;;;;;;;;5028460;28;20103;-65
2022/06/30 14:03:09;;;;;;;6.93;3.67;;;;;;;;;;5028673;28;20045;-61
2022/06/30 14:05:35;;;;;;;8.10;3.45;;;;;;;;;;5051795;28;20063;-65
2022/06/30 14:08:02;;;;;;;4.72;2.83;;;;;;;;;;5048172;28;20051;-65
2022/06/30 14:10:28;;;;;;;6.70;3.22;;;;;;;;;;5031924;28;20072;-64
2022/06/30 14:12:56;;;;;;;6.40;3.28;;;;;;;;;;5034913;28;20116;-64
2022/06/30 14:15:22;;;;;;;5.55;3.10;;;;;;;;;;5016826;28;20077;-65
2022/06/30 14:17:48;;;;;;;6.13;3.20;;;;;;;;;;5011899;28;20048;-65
2022/06/30 14:20:14;;;;;;;6.60;3.30;;;;;;;;;;5033602;28;20126;-65
2022/06/30 14:22:41;;;;;;;4.28;2.70;;;;;;;;;;5035709;28;20103;-65
2022/06/30 14:25:07;;;;;;;4.57;2.95;;;;;;;;;;5018928;28;20037;-65
2022/06/30 14:27:34;;;;;;;8.30;3.60;;;;;;;;;;5037634;28;20048;-62
2022/06/30 14:30:04;;;;;;;4.97;2.88;;;;;;;;;;5044628;28;20045;-65
2022/06/30 14:32:31;;;;;;;5.65;3.00;;;;;;;;;;5046541;28;20071;-63
2022/06/30 14:34:57;;;;;;;7.28;3.00;;;;;;;;;;5043009;28;20461;-64
2022/06/30 14:37:26;;;;;;;6.03;3.70;;;;;;;;;;5032989;28;20037;-63
2022/06/30 14:39:53;;;;;;;10.43;4.07;;;;;;;;;;5034428;28;20099;-64
2022/06/30 14:45:04;;;;;;;4.55;2.67;;;;;;;;;;5031857;28;20045;-64
2022/06/30 14:47:30;;;;;;;4.40;2.75;;;;;;;;;;5031578;28;20041;-64
2022/06/30 14:49:56;;;;;;;8.23;2.90;;;;;;;;;;5030266;28;20060;-65
2022/06/30 14:52:22;;;;;;;5.53;3.05;;;;;;;;;;5032584;28;20409;-64
2022/06/30 14:54:49;;;;;;;6.45;2.90;;;;;;;;;;5017638;28;20049;-63
2022/06/30 14:57:15;;;;;;;5.88;3.00;;;;;;;;;;5032903;28;20072;-61
2022/06/30 14:59:41;;;;;;;5.00;2.65;;;;;;;;;;5031519;28;20049;-64
2022/06/30 15:02:07;;;;;;;4.65;2.97;;;;;;;;;;5041461;28;20532;-65
2022/06/30 15:04:34;;;;;;;6.15;3.03;;;;;;;;;;5047323;28;20037;-64
2022/06/30 15:07:00;;;;;;;3.67;2.40;;;;;;;;;;5050311;28;20087;-67